Clifton, Ohio
Current Conditions -  °F | °C
As of 10:56 PM on Tuesday 27 Jan 2015 (Local Time) from KSGH Reporting Station
Haze Haze  
Wind Chill: 10°   Ceiling: Unl
Heat Index: 10°   Visibility: 5mi
Dew Point:   Wind: 3mph
Humidity: 88%   Direction: 180°S
Pressure: 30.22"   Gusts: NA
Location:  39.8°N, 83.83°W
Report Text: KSGH 280356Z AUTO 18003KT 5SM BR CLR M12/M14 A3022 RMK AO2 T11221138 410381166 SLP255
Loading
Personal Weather Stations






























Interactive Weather Map New forecast layout! Learn more

10-Day Weather Forecast

Advertisements
Track Severe Weather on mobile